This is the latest recevied weather packets stored in our database for station/object ED5YAW-10. If no packets are shown the sender has not sent any weather packets the latest 10 day(s).
| Time | Temp. | Humidity | Pressure | Rain* | Wind** | Luminosity | Snow |
|---|---|---|---|---|---|---|---|
| 1777581175 | 12.22° C | 100% | 878 hPa | - | - | - | - |
| 1777580575 | 12.78° C | 100% | 878 hPa | - | - | - | - |
| 1777580571 | 12.78° C | 100% | 878 hPa | - | - | - | - |
| 1777579971 | 13.33° C | 100% | 878 hPa | - | - | - | - |
| 1777579967 | 13.33° C | 100% | 878 hPa | - | - | - | - |
| 1777579366 | 13.33° C | 100% | 878 hPa | - | - | - | - |
| 1777579362 | 13.33° C | 100% | 878 hPa | - | - | - | - |
| 1777578762 | 13.33° C | 96% | 878 hPa | - | - | - | - |
| 1777578758 | 13.33° C | 96% | 878 hPa | - | - | - | - |
| 1777578158 | 13.89° C | 93% | 878 hPa | - | - | - | - |
| 1777578154 | 13.89° C | 93% | 878 hPa | - | - | - | - |
| 1777577554 | 15° C | 87% | 878 hPa | - | - | - | - |
| 1777577550 | 15° C | 87% | 878 hPa | - | - | - | - |
| 1777577070 | 16.67° C | 92% | 878 hPa | - | - | - | - |
| 1777576949 | 16.67° C | 92% | 878 hPa | - | - | - | - |
| 1777576945 | 16.67° C | 92% | 878 hPa | - | - | - | - |
| 1777576345 | 17.22° C | 85% | 877 hPa | - | - | - | - |
| 1777576341 | 17.22° C | 85% | 877 hPa | - | - | - | - |
| 1777576315 | 18.33° C | 75% | 877 hPa | - | - | - | - |
| 1777575741 | 18.33° C | 75% | 877 hPa | - | - | - | - |
| 1777575737 | 18.33° C | 75% | 877 hPa | - | - | - | - |
| 1777575137 | 19.44° C | 66% | 877 hPa | - | - | - | - |
| 1777575133 | 19.44° C | 66% | 877 hPa | - | - | - | - |
| 1777574532 | 21.11° C | 49% | 877 hPa | - | - | - | - |
| 1777574528 | 21.11° C | 49% | 877 hPa | - | - | - | - |
* Rain since midnight (hover to see other rain measurements)
** Current wind speed in m/s (hover to see current wind gust speed)